Greenbay, Virginia
Current Conditions -  °F | °C
As of 6:55 AM on Thursday 23 Oct 2014 (Local Time) from KW81 Reporting Station
Clear Clear  
Wind Chill: 46°   Ceiling: Unl
Heat Index: 46°   Visibility: 10mi
Dew Point: 39°   Wind: 3mph
Humidity: 78%   Direction: 290°WNW
Pressure: 29.96"   Gusts: NA
Location:  37.131°N, 78.3033°W
Report Text: KW81 231055Z AUTO 29003KT 10SM CLR 08/04 A2996 RMK AO1 T00760040
Loading
Personal Weather Stations






























Interactive Weather Map
Tropical Storm Tracking
New forecast layout! Learn more

10-Day Weather Forecast

Advertisements
Track Severe Weather on mobile